createdAt,value
2022-08-04T00:11:21.544Z,5.0375
2022-08-04T00:14:19.336Z,4.7125
2022-08-04T00:41:56.087Z,4.4624999999999995
2022-08-04T00:44:47.580Z,4.824999999999999
2022-08-04T00:47:50.859Z,5.2
2022-08-04T00:51:32.645Z,7.25
2022-08-04T00:54:33.476Z,6.362500000000001
2022-08-04T00:57:34.305Z,4.3125
2022-08-04T01:01:28.473Z,7.3125
2022-08-04T01:04:23.929Z,4.85
2022-08-04T01:07:54.259Z,6.875
2022-08-04T01:11:29.590Z,5.7875
2022-08-04T01:14:34.447Z,4.2875
2022-08-04T01:17:22.043Z,4.262499999999999
2022-08-04T01:22:09.534Z,5.2375
2022-08-04T01:24:30.099Z,6.575000000000001
2022-08-04T01:27:30.629Z,7.25
2022-08-04T01:31:25.060Z,5.85
2022-08-04T01:34:21.238Z,3.5999999999999996
2022-08-04T01:37:30.877Z,8.325
2022-08-04T01:41:19.388Z,5.625
2022-08-04T01:44:22.070Z,5.375
2022-08-04T01:47:20.942Z,8.5875
2022-08-04T01:51:18.686Z,4.7
2022-08-04T01:54:18.130Z,6.7125
2022-08-04T01:57:38.850Z,5.6625
2022-08-04T02:01:16.463Z,6.1375
2022-08-04T02:04:23.137Z,6.225
2022-08-04T02:07:32.016Z,9.2125
2022-08-04T02:11:20.244Z,10.95
2022-08-04T02:14:50.059Z,4.7625
2022-08-04T02:17:24.439Z,4.8999999999999995
2022-08-04T02:21:19.318Z,7.9375
2022-08-04T02:24:21.700Z,7.9
2022-08-04T02:27:24.257Z,5.5
2022-08-04T02:31:26.289Z,6.7125
2022-08-04T02:34:24.577Z,7.737500000000001
2022-08-04T02:37:17.147Z,6.65
2022-08-04T02:41:16.791Z,8.0625
2022-08-04T02:44:20.738Z,8.5875
2022-08-04T02:47:19.442Z,5.6375
2022-08-04T02:51:20.560Z,6.1875
2022-08-04T02:54:32.862Z,4.9875
2022-08-04T02:57:17.864Z,6.2875
2022-08-04T03:01:17.156Z,6.5625
2022-08-04T03:04:30.892Z,7.8375
2022-08-04T03:07:46.517Z,7.175
2022-08-04T03:11:41.357Z,5.0625
2022-08-04T03:14:45.494Z,5.762499999999999
2022-08-04T03:21:37.834Z,7.6625
2022-08-04T03:24:43.176Z,4.612500000000001
2022-08-04T03:27:43.085Z,6.9
2022-08-04T03:32:24.478Z,6.437499999999999
2022-08-04T03:34:32.944Z,6.775
2022-08-04T03:37:36.406Z,5.5625
2022-08-04T03:41:51.668Z,5.012499999999999
2022-08-04T03:45:04.138Z,7.4375
2022-08-04T04:01:57.803Z,4.725
2022-08-04T04:04:37.607Z,6.0625
2022-08-04T04:07:58.301Z,4.9
2022-08-04T04:21:28.493Z,8.825
2022-08-04T04:25:18.434Z,6.35
2022-08-04T04:27:31.089Z,6.4875
2022-08-04T04:31:32.805Z,6.262499999999999
2022-08-04T04:34:34.248Z,6.1625000000000005
2022-08-04T04:37:31.529Z,5.9625
2022-08-04T04:41:28.578Z,5.7875
2022-08-04T04:44:42.338Z,14.5625
2022-08-04T04:51:27.206Z,13.450000000000001
2022-08-04T04:54:27.759Z,12.025
2022-08-04T04:57:19.210Z,10.649999999999999
2022-08-04T05:01:39.109Z,10.5625
2022-08-04T05:04:37.129Z,12.0875
2022-08-04T05:07:37.233Z,8.575
2022-08-04T05:11:35.887Z,8.6375
2022-08-04T05:14:37.803Z,8.25
2022-08-04T05:17:23.064Z,7.025
2022-08-04T05:21:33.079Z,6.1875
2022-08-04T05:24:20.082Z,7.5875
2022-08-04T05:27:21.514Z,8.475
2022-08-04T05:31:20.582Z,5.975
2022-08-04T05:34:21.511Z,7.987499999999999
2022-08-04T05:37:19.797Z,6.4125000000000005
2022-08-04T05:41:16.283Z,6.8625
2022-08-04T05:44:18.341Z,8.8625
2022-08-04T05:47:17.277Z,7.65
2022-08-04T05:51:17.069Z,8.9875
2022-08-04T05:54:18.300Z,8.05
2022-08-04T05:57:18.097Z,13.2875
2022-08-04T06:01:22.275Z,8.55
2022-08-04T06:04:19.018Z,7.7125
2022-08-04T06:07:16.666Z,10.399999999999999
2022-08-04T06:11:27.879Z,8
2022-08-04T06:14:29.137Z,13
2022-08-04T06:19:57.717Z,6.9
2022-08-04T06:21:20.035Z,8.649999999999999
2022-08-04T06:24:21.355Z,10.1375
2022-08-04T06:27:18.147Z,10.175
2022-08-04T06:32:28.010Z,11.2625
2022-08-04T06:34:16.940Z,7.362500000000001
2022-08-04T06:37:40.796Z,9.274999999999999
2022-08-04T06:41:16.159Z,9.3125
2022-08-04T06:44:19.983Z,11.100000000000001
2022-08-04T06:47:21.008Z,16.950000000000003
2022-08-04T06:51:25.535Z,9.525
2022-08-04T06:54:16.961Z,8.6125
2022-08-04T06:57:19.995Z,12.4375
2022-08-04T07:01:18.882Z,7.9125
2022-08-04T07:04:16.897Z,9
2022-08-04T07:07:17.518Z,11.275
2022-08-04T07:11:18.488Z,7.675
2022-08-04T07:14:18.188Z,13.6125
2022-08-04T07:17:20.597Z,6.8500000000000005
2022-08-04T07:21:20.379Z,9.9375
2022-08-04T07:24:16.667Z,9.049999999999999
2022-08-04T07:27:16.889Z,5.6
2022-08-04T07:31:32.953Z,9.425
2022-08-04T07:34:22.095Z,6.6
2022-08-04T07:37:17.340Z,6.975
2022-08-04T07:41:36.492Z,5.9125
2022-08-04T07:44:16.917Z,5.6875
2022-08-04T07:47:26.508Z,6
2022-08-04T07:51:18.174Z,6.0125
2022-08-04T07:54:18.497Z,5.8625
2022-08-04T07:57:41.300Z,5.3125
2022-08-04T08:01:16.307Z,4.9875
2022-08-04T08:04:17.852Z,5.175000000000001
2022-08-04T08:07:23.565Z,6.512499999999999
2022-08-04T08:11:16.414Z,6.725
2022-08-04T08:14:17.507Z,6.0125
2022-08-04T08:17:16.658Z,4.2875
2022-08-04T08:21:19.402Z,8.0125
2022-08-04T08:24:17.156Z,3.7750000000000004
2022-08-04T08:27:16.606Z,3.7
2022-08-04T08:31:16.394Z,4.7125
2022-08-04T08:34:21.644Z,3.7375
2022-08-04T08:37:25.326Z,3.5249999999999995
2022-08-04T08:42:25.660Z,5.3125
2022-08-04T08:44:46.269Z,5.3125
2022-08-04T08:48:04.871Z,5.8125
2022-08-04T08:51:34.812Z,5.612500000000001
2022-08-04T08:54:37.211Z,4.6499999999999995
2022-08-04T08:57:59.263Z,5.2
2022-08-04T09:01:39.726Z,4.800000000000001
2022-08-04T09:04:39.408Z,4.9125
2022-08-04T09:07:33.959Z,3.2125
2022-08-04T09:31:51.736Z,3.6375
2022-08-04T09:34:33.785Z,3.7874999999999996
2022-08-04T09:37:45.734Z,3.1374999999999997
2022-08-04T09:41:48.481Z,5.25
2022-08-04T09:44:49.271Z,3.7750000000000004
2022-08-04T09:47:23.774Z,5.4125
2022-08-04T10:01:23.072Z,2.95
2022-08-04T10:04:21.351Z,2.525
2022-08-04T10:07:32.678Z,6.5625
2022-08-04T10:11:26.615Z,3.1625
2022-08-04T10:14:35.708Z,3.8000000000000003
2022-08-04T10:17:33.840Z,6.475
2022-08-04T10:21:26.419Z,2.6125
2022-08-04T10:24:32.263Z,2.4375
2022-08-04T10:27:27.277Z,3.0875
2022-08-04T10:31:23.991Z,4.2875
2022-08-04T10:34:25.563Z,5.2125
2022-08-04T10:37:23.629Z,2.525
2022-08-04T10:41:26.664Z,5.5875
2022-08-04T10:44:42.180Z,3.7624999999999997
2022-08-04T10:51:57.636Z,8.6375
2022-08-04T11:11:23.517Z,4.949999999999999
2022-08-04T11:21:20.907Z,2.7625
2022-08-04T11:31:22.061Z,2
2022-08-04T11:41:21.357Z,7.4
2022-08-04T11:51:18.377Z,2.575
2022-08-04T12:01:29.757Z,3.7875
2022-08-04T12:11:39.739Z,6.137499999999999
2022-08-04T12:21:27.531Z,2.1125
2022-08-04T12:31:23.724Z,4.75
2022-08-04T12:51:30.966Z,4.125
2022-08-04T13:02:10.269Z,2.875
2022-08-04T13:11:18.392Z,4.7749999999999995
2022-08-04T13:21:21.186Z,3.675
2022-08-04T13:31:19.882Z,2.075
2022-08-04T13:41:18.066Z,9.625
2022-08-04T13:51:19.522Z,2.1375
2022-08-04T14:01:20.216Z,2.875
2022-08-04T14:12:10.016Z,3.4125
2022-08-04T14:21:17.262Z,6.05
2022-08-04T14:31:18.278Z,4.9625
2022-08-04T14:41:19.615Z,4.3875
2022-08-04T14:51:17.318Z,2.575
2022-08-04T15:01:18.969Z,8.4875
2022-08-04T15:11:22.631Z,3.4875000000000003
2022-08-04T15:21:18.202Z,5.6875
2022-08-04T15:32:07.905Z,4.8625
2022-08-04T15:41:25.578Z,4.7875
2022-08-04T15:51:30.403Z,6
2022-08-04T16:01:18.336Z,1.525
2022-08-04T16:11:36.800Z,3.15
2022-08-04T16:21:19.840Z,2.0124999999999997
2022-08-04T16:31:16.909Z,1.8375
2022-08-04T16:41:38.388Z,2.1
2022-08-04T16:51:16.707Z,1.8499999999999999
2022-08-04T17:01:32.327Z,2.1125
2022-08-04T17:31:38.291Z,1.8375
2022-08-04T17:41:19.079Z,3.05
2022-08-04T17:51:17.389Z,1.2375
2022-08-04T18:01:24.655Z,2.55
2022-08-04T18:41:16.922Z,3.475
2022-08-04T18:51:23.942Z,1.0625
2022-08-04T18:54:17.385Z,2.2625
2022-08-04T18:57:32.344Z,3.3
2022-08-04T19:01:16.032Z,2.8375
2022-08-04T19:04:33.814Z,1.5
2022-08-04T19:07:28.626Z,1.9124999999999999
2022-08-04T19:11:37.448Z,1.0750000000000002
2022-08-04T19:14:19.886Z,1.4125
2022-08-04T19:17:53.744Z,2.325
2022-08-04T19:21:17.419Z,5.075
2022-08-04T19:24:32.214Z,2.3375
2022-08-04T19:27:17.928Z,3.25
2022-08-04T19:31:19.224Z,1.5125
2022-08-04T19:34:33.320Z,1.5
2022-08-04T19:37:57.658Z,2.6875
2022-08-04T19:41:18.420Z,5.85
2022-08-04T19:44:18.921Z,2.25
2022-08-04T19:51:22.688Z,4.425
2022-08-04T19:54:23.819Z,1.9375000000000002
2022-08-04T19:57:19.301Z,1.4249999999999998
2022-08-04T20:01:32.998Z,5.0875
2022-08-04T20:11:18.974Z,3.4
2022-08-04T20:14:19.270Z,2.3374999999999995
2022-08-04T20:31:19.042Z,2.4
2022-08-04T20:41:19.223Z,1.75
2022-08-04T20:44:24.351Z,4.1125
2022-08-04T20:51:53.544Z,2.6375
2022-08-04T21:01:19.645Z,8.1375
2022-08-04T21:04:43.545Z,4
2022-08-04T21:07:20.051Z,1.6875
2022-08-04T21:11:18.393Z,1.9125
2022-08-04T21:14:19.238Z,1.3625
2022-08-04T21:17:20.197Z,2.6
2022-08-04T21:21:43.065Z,1.6
2022-08-04T22:11:50.394Z,2.1875
2022-08-04T22:14:50.371Z,5.0375
2022-08-04T23:21:16.825Z,2.8625
2022-08-04T23:24:17.112Z,4.55
2022-08-04T23:27:17.094Z,2.8874999999999997
2022-08-04T23:31:16.464Z,4.199999999999999
2022-08-04T23:34:18.874Z,4.925
2022-08-04T23:37:16.787Z,5.987500000000001
2022-08-04T23:41:17.270Z,3.8375000000000004
2022-08-04T23:44:24.298Z,8.4
2022-08-04T23:48:16.086Z,4.175
2022-08-04T23:51:16.315Z,3.8500000000000005
2022-08-04T23:54:16.417Z,3.425
2022-08-04T23:57:17.180Z,1.825
